Motte Rimrock Reserve, California Weather observations

Data are for 10 minute period ending at time listed.
 Day   Time   Solar   Ave.   Ave.  Ave.  Vector  Max.   Baro.   Total    
  of    of     Rad.   Air    Rel.  Wind   Wind   Wind  Press.  Precip.   
Year   Day            Temp.  Hum.  Speed  Dir.   Gust                    
2017   (PST)  Kw/m2    F      %     mph   deg.    mph    mb.     in.     
-------------------------------------------------------------------------
 144   19:00   0.01   66.8    46    8.4   322    10.9   941.6    0.00 
 144   19:10   0.01   66.0    49    6.1   336     9.5   941.7    0.00 
 144   19:20   0.00   65.8    49    4.1     4     6.4   941.7    0.00 
 144   19:30   0.00   65.7    49    2.6    42     4.7   941.8    0.00 
 144   19:40   0.00   65.0    50    3.6    50     5.5   941.9    0.00 
 144   19:50   0.00   62.8    59    4.5    95     6.8   942.0    0.00 
 144   20:00   0.00   61.2    62    6.2   107     8.4   942.1    0.00 
 144   20:10   0.00   60.2    64    6.8   114     8.5   942.2    0.00 
 144   20:20   0.00   58.8    67    7.7   125    11.3   942.2    0.00 
 144   20:30   0.00   57.9    69    8.3   123    10.3   942.2    0.00 
 144   20:40   0.00   56.8    73    7.9   127     9.9   942.3    0.00 
 144   20:50   0.00   55.5    77    8.0   132     9.7   942.4    0.00 
 144   21:00   0.00   54.8    80    7.5   126    10.2   942.4    0.00 
 144   21:10   0.00   54.2    82    6.3   130     8.3   942.5    0.00 
 144   21:20   0.00   53.5    84    6.3   126     8.5   942.6    0.00 
 144   21:30   0.00   53.1    86    6.7   126     8.0   942.7    0.00 
 144   21:40   0.00   52.8    87    7.9   128     9.8   942.7    0.00 
 144   21:50   0.00   52.4    88    7.2   132    10.2   942.8    0.00 
 144   22:00   0.00   52.2    89    6.2   140     8.3   942.7    0.00 
 144   22:10   0.00   52.1    89    7.0   138     9.4   942.8    0.00 
 144   22:20   0.00   51.7    90    7.6   134    10.1   942.8    0.00 
 144   22:30   0.00   51.2    91    8.3   138    10.2   942.8    0.00 
 144   22:40   0.00   50.9    92    8.2   135    11.5   942.8    0.00 
 144   22:50   0.00   50.7    92    7.1   133     8.7   942.8    0.00 
 144   23:00   0.00   50.7    92    7.7   132     9.9   942.8    0.00 
 144   23:10   0.00   50.9    92    7.8   138    10.2   942.8    0.00 
 144   23:20   0.00   51.0    92    7.5   137     9.6   942.8    0.00 
 144   23:30   0.00   51.2    92    6.9   135     8.9   942.8    0.00 
 144   23:40   0.00   51.2    92    6.4   141     8.9   942.8    0.00 
 144   23:50   0.00   51.4    91    5.3   146     7.7   942.8    0.00 
 145    0:00   0.00   51.5    91    5.0   167     7.7   942.8    0.00 
 145    0:10   0.00   51.5    91    4.9   167     6.9   942.7    0.00 
 145    0:20   0.00   51.6    91    4.9   153     6.4   942.7    0.00 
 145    0:30   0.00   51.7    90    4.5   155     6.3   942.7    0.00 
 145    0:40   0.00   51.7    90    3.4   176     4.8   942.7    0.00 
 145    0:50   0.00   51.9    89    2.8   199     3.9   942.7    0.00 
 145    1:00   0.00   51.9    89    3.0   187     5.6   942.7    0.00 
 145    1:10   0.00   52.1    88    3.1   168     6.6   942.7    0.00 
 145    1:20   0.00   52.1    88    4.1   147     6.1   942.6    0.00 
 145    1:30   0.00   52.1    88    4.5   161     6.7   942.6    0.00 
 145    1:40   0.00   52.1    88    5.5   130     7.5   942.5    0.00 
 145    1:50   0.00   51.9    88    5.1   126     7.7   942.5    0.00 
 145    2:00   0.00   52.1    87    5.0   138     7.7   942.6    0.00 
 145    2:10   0.00   51.9    88    4.9   134     6.8   942.6    0.00 
 145    2:20   0.00   51.7    88    5.9   142     8.0   942.5    0.00 
 145    2:30   0.00   51.7    88    4.9   148     7.2   942.5    0.00 
 145    2:40   0.00   51.5    88    5.8   142     9.8   942.5    0.00 
 145    2:50   0.00   51.3    89    1.5   149     5.4   942.4    0.00 
 145    3:00   0.00   51.5    89    1.7   123     5.6   942.4    0.00 
 145    3:10   0.00   51.5    89    1.9    75     4.5   942.4    0.00 
 145    3:20   0.00   51.7    88    3.7   152     6.5   942.3    0.00 
 145    3:30   0.00   51.5    88    3.8   153     6.1   942.4    0.00 
 145    3:40   0.00   51.5    88    4.4   132     7.0   942.5    0.00 
 145    3:50   0.00   51.6    88    3.6   132     7.2   942.5    0.00 
 145    4:00   0.00   51.8    87    3.5   128     5.7   942.5    0.00 
 145    4:10   0.00   51.7    87    4.1   147     6.9   942.6    0.00 
 145    4:20   0.00   51.7    86    3.3   142     5.6   942.6    0.00 
 145    4:30   0.00   51.7    86    4.1   164     7.1   942.6    0.00 
 145    4:40   0.00   51.8    84    4.9   145     7.6   942.7    0.00 
 145    4:50   0.00   51.8    84    5.8   145     8.4   942.7    0.00 
 145    5:00   0.00   51.9    84    4.0   161     6.3   942.7    0.00 
 145    5:10   0.00   52.0    83    3.7   147     7.7   942.7    0.00 
 145    5:20   0.01   52.0    81    6.2   128     8.0   942.8    0.00 
 145    5:30   0.01   52.2    81    5.1   139     6.4   943.0    0.00 
 145    5:40   0.02   52.3    79    5.4   153     7.3   943.0    0.00 
 145    5:50   0.03   52.4    79    5.3   159     7.2   943.0    0.00 
 145    6:00   0.03   52.4    78    3.2   181     6.5   943.0    0.00 
 145    6:10   0.04   52.3    78    4.4   107     7.5   943.0    0.00 
 145    6:20   0.05   52.5    77    3.6   119     6.3   943.0    0.00 
 145    6:30   0.06   52.8    76    5.2   151     9.2   943.1    0.00 
 145    6:40   0.07   52.7    75    6.5   154    11.7   943.1    0.00 
 145    6:50   0.08   52.9    74    3.4   167     9.1   943.2    0.00 
 145    7:00   0.08   52.8    75    3.8   176     7.7   943.2    0.00 
 145    7:10   0.08   53.1    76    3.7   173     6.9   943.2    0.00 
 145    7:20   0.09   53.0    76    4.2   208     8.5   943.3    0.00 
 145    7:30   0.10   53.2    76    3.7   151     7.1   943.3    0.00 
 145    7:40   0.12   53.6    76    5.5   152     9.0   943.3    0.00 
 145    7:50   0.14   53.6    75    3.5   184     7.9   943.4    0.00 
 145    8:00   0.17   54.0    74    3.8   211     7.1   943.4    0.00 
 145    8:10   0.20   54.2    73    4.6   187     8.6   943.5    0.00 
 145    8:20   0.22   54.4    72    4.2   222     8.3   943.6    0.00 
 145    8:30   0.24   55.0    71    3.9   262     8.0   943.6    0.00 
 145    8:40   0.31   55.5    69    3.7   186     8.3   943.7    0.00 
 145    8:50   0.37   56.1    68    4.3   177     8.8   943.8    0.00 
 145    9:00   0.69   57.0    65    6.6   156    11.8   943.8    0.00 
 145    9:10   0.75   58.0    62    8.4   150    12.1   943.8    0.00 
 145    9:20   0.77   58.5    61    6.9   151    12.7   943.8    0.00 
 145    9:30   0.79   59.3    59    3.9   147    10.7   943.9    0.00 
 145    9:40   0.81   60.7    56    5.7   166     9.3   944.0    0.00 
 145    9:50   0.83   60.6    56    3.4   185     7.7   944.0    0.00 
 145   10:00   0.85   62.2    53    4.9   164    10.9   944.0    0.00 
 145   10:10   0.86   62.8    52    5.4   214    10.2   944.0    0.00 
 145   10:20   0.87   63.4    50    3.6   178     9.1   944.0    0.00 
 145   10:30   0.89   64.3    49    5.3   140    12.4   944.1    0.00 
 145   10:40   0.90   64.0    50    7.0   142    11.8   944.1    0.00 
 145   10:50   0.91   65.0    48    5.7   174    11.4   944.2    0.00 
 145   11:00   0.92   66.2    46    8.2   157    13.2   944.1    0.00 
 145   11:10   0.93   66.5    45    7.3   175    14.6   944.1    0.00 
 145   11:20   0.93   66.5    46    7.4   138    13.2   944.0    0.00 
 145   11:30   0.92   67.0    45    4.6   104    10.1   944.0    0.00 
 145   11:40   0.93   68.5    42    7.8   173    14.2   943.9    0.00 
 145   11:50   0.93   68.3    42    6.6   149    15.4   943.9    0.00 
 145   12:00   0.93   68.4    42   11.6   144    18.2   943.7    0.00 
 145   12:10   0.92   68.5    42    9.3   134    15.0   943.7    0.00 
 145   12:20   0.92   68.8    42    7.0   145    10.8   943.6    0.00 
 145   12:30   0.92   68.7    42    9.1   132    16.0   943.5    0.00 
 145   12:40   0.91   69.1    42    8.0   148    15.1   943.4    0.00 
 145   12:50   0.90   69.5    41    8.4   151    15.4   943.3    0.00 
 145   13:00   0.86   70.4    40    7.4   126    13.9   943.3    0.00 
 145   13:10   0.89   70.6    40    9.0   116    17.5   943.2    0.00 
 145   13:20   0.88   71.0    39    9.1   127    14.0   943.0    0.00 
 145   13:30   0.86   70.7    39    5.5   128    14.4   943.0    0.00 
 145   13:40   0.84   70.9    40    7.2   330    16.5   943.0    0.00 
 145   13:50   0.83   69.6    43    8.2   315    13.5   942.8    0.00 
 145   14:00   0.81   70.5    42   10.5   307    14.8   942.7    0.00 
 145   14:10   0.78   70.6    42   10.6   302    16.9   942.6    0.00 
 145   14:20   0.77   70.0    43   12.7   310    17.0   942.5    0.00 
 145   14:30   0.74   70.5    42   11.6   313    16.4   942.5    0.00 
 145   14:40   0.72   70.4    42   12.3   297    19.0   942.5    0.00 
 145   14:50   0.69   69.9    43   11.7   305    18.6   942.5    0.00 
 145   15:00   0.67   70.1    43   12.8   308    17.6   942.5    0.00 
 145   15:10   0.64   69.5    44   14.1   300    19.1   942.4    0.00 
 145   15:20   0.61   69.0    45   15.1   303    20.4   942.4    0.00 
 145   15:30   0.59   69.0    45   14.2   308    19.8   942.3    0.00 
 145   15:40   0.55   68.0    47   12.7   311    17.5   942.4    0.00 
 145   15:50   0.53   67.6    48   13.9   302    19.3   942.4    0.00 
 145   16:00   0.50   67.5    48   16.1   303    21.3   942.4    0.00 
 145   16:10   0.46   66.6    49   15.3   303    20.5   942.3    0.00 
 145   16:20   0.43   66.2    50   14.8   309    21.1   942.3    0.00 
 145   16:30   0.40   65.7    51   14.9   307    22.9   942.4    0.00 
 145   16:40   0.36   65.7    51   13.2   303    18.3   942.4    0.00 
 145   16:50   0.33   65.2    52   13.7   303    17.3   942.4    0.00 
 145   17:00   0.30   64.7    53   12.7   302    16.6   942.5    0.00 
 145   17:10   0.26   64.3    53   12.6   313    16.1   942.6    0.00 
 145   17:20   0.23   63.8    54   11.3   308    14.5   942.6    0.00 
 145   17:30   0.20   63.5    55   10.4   307    15.5   942.5    0.00 
 145   17:40   0.17   63.4    55   10.2   314    12.9   942.5    0.00 
 145   17:50   0.14   63.1    55   10.5   324    13.9   942.6    0.00 
 145   18:00   0.11   62.5    57    8.8   316    12.2   942.7    0.00 
 145   18:10   0.08   62.0    58    9.3   317    11.7   942.7    0.00 
 145   18:20   0.07   61.4    58    8.6   314    12.3   942.7    0.00 
 145   18:30   0.04   60.5    60    9.3   319    12.9   942.8    0.00 
 145   18:40   0.02   59.8    62    9.5   319    12.6   942.9    0.00 
 145   18:50   0.00   59.1    63    8.5   318    11.5   942.9    0.00 

Return to Motte Rimrock Reserve graphs page.


Western Regional Climate Center,wrcc@dri.edu